Time;durP1;ratioP1;P1;durP2;ratioP2;P2;SDS_P1;SDS_P2;PMS_P1;PMS_P2;Temp;Humidity;BMP_temperature;BMP_pressure;BME280_temperature;BME280_humidity;BME280_pressure;Samples;Min_cycle;Max_cycle;Signal;HPM_P1;HPM_P2
2023/02/02 00:00:34;;;;;;;11.20;5.57;;;10.20;1.00;;;;;;5032995;28;20116;-47
2023/02/02 00:02:59;;;;;;;12.27;5.75;;;10.40;1.00;;;;;;5033004;28;20415;-47
2023/02/02 00:05:25;;;;;;;10.88;5.68;;;10.30;1.00;;;;;;5032685;28;20026;-47
2023/02/02 00:07:50;;;;;;;13.15;5.28;;;10.30;1.00;;;;;;5032828;28;20017;-47
2023/02/02 00:10:16;;;;;;;14.00;5.90;;;10.30;1.00;;;;;;5032684;28;20438;-49
2023/02/02 00:12:42;;;;;;;12.32;5.63;;;10.30;1.00;;;;;;5032797;28;20021;-47
2023/02/02 00:15:08;;;;;;;11.88;5.50;;;10.30;1.00;;;;;;5032785;28;20502;-49
2023/02/02 00:17:42;;;;;;;10.90;5.60;;;10.20;1.00;;;;;;5032634;28;20472;-48
2023/02/02 00:20:08;;;;;;;12.88;6.13;;;10.30;1.00;;;;;;5032543;28;20044;-49
2023/02/02 00:22:34;;;;;;;14.77;5.57;;;10.30;1.00;;;;;;5032592;28;20069;-47
2023/02/02 00:25:00;;;;;;;12.07;5.90;;;10.40;1.00;;;;;;5032501;28;20049;-48
2023/02/02 00:27:25;;;;;;;13.35;6.00;;;10.40;1.00;;;;;;5032729;28;20475;-48
2023/02/02 00:29:52;;;;;;;13.50;5.80;;;10.30;1.00;;;;;;5019179;28;20022;-47
2023/02/02 00:32:19;;;;;;;11.07;5.35;;;10.40;1.00;;;;;;5030486;28;20021;-47
2023/02/02 00:34:45;;;;;;;16.88;6.32;;;10.40;1.00;;;;;;5032393;28;20164;-47
2023/02/02 00:37:10;;;;;;;14.45;5.85;;;10.20;1.00;;;;;;5030838;28;20550;-47
2023/02/02 00:39:36;;;;;;;11.20;5.77;;;10.30;1.00;;;;;;5031446;28;20029;-49
2023/02/02 00:42:02;;;;;;;10.18;5.45;;;10.30;1.00;;;;;;5032260;28;20124;-47
2023/02/02 00:47:11;;;;;;;11.73;5.07;;;10.20;1.00;;;;;;5031986;28;20040;-49
2023/02/02 00:49:37;;;;;;;10.87;5.33;;;10.30;1.00;;;;;;5032124;28;20017;-47
2023/02/02 00:52:02;;;;;;;12.65;5.47;;;10.30;1.00;;;;;;5032431;28;20032;-48
2023/02/02 00:54:28;;;;;;;12.63;5.73;;;10.30;1.00;;;;;;5032376;28;20378;-48
2023/02/02 00:56:54;;;;;;;11.25;6.10;;;10.20;1.00;;;;;;5031967;28;20494;-48
2023/02/02 00:59:19;;;;;;;15.30;6.17;;;10.30;1.00;;;;;;5032229;28;20053;-47
2023/02/02 01:01:45;;;;;;;12.63;5.87;;;10.30;1.00;;;;;;5018475;28;20570;-47
2023/02/02 01:04:10;;;;;;;11.53;5.47;;;10.20;1.00;;;;;;5031856;28;20026;-47
2023/02/02 01:06:36;;;;;;;11.43;5.78;;;10.10;1.00;;;;;;5032042;28;20026;-49
2023/02/02 01:09:02;;;;;;;12.88;6.15;;;10.10;1.00;;;;;;5031712;28;20039;-47
2023/02/02 01:11:29;;;;;;;10.02;5.97;;;10.20;1.00;;;;;;5031093;28;20047;-47
2023/02/02 01:13:55;;;;;;;16.27;6.18;;;10.30;1.00;;;;;;5031660;28;20037;-47
2023/02/02 01:16:33;;;;;;;12.38;6.03;;;10.30;1.00;;;;;;5030434;28;20026;-48
2023/02/02 01:18:59;;;;;;;10.77;6.13;;;10.20;1.00;;;;;;5031754;28;20033;-49
2023/02/02 01:21:24;;;;;;;12.27;6.07;;;10.30;1.00;;;;;;5031717;28;20025;-47
2023/02/02 01:23:50;;;;;;;12.32;5.50;;;10.30;1.00;;;;;;5031645;28;20336;-49
2023/02/02 01:26:16;;;;;;;13.20;6.13;;;10.20;1.00;;;;;;5030448;28;20029;-48
2023/02/02 01:28:42;;;;;;;12.27;6.00;;;10.20;1.00;;;;;;5031696;28;20029;-48
2023/02/02 01:31:11;;;;;;;11.37;6.37;;;10.10;1.00;;;;;;5028432;28;20036;-47
2023/02/02 01:33:37;;;;;;;12.80;6.10;;;10.20;1.00;;;;;;5031847;28;20029;-47
2023/02/02 01:36:07;;;;;;;11.68;6.22;;;10.10;1.00;;;;;;5031415;28;20040;-47
2023/02/02 01:38:33;;;;;;;10.82;6.30;;;10.10;1.00;;;;;;5031583;28;20471;-51
2023/02/02 01:41:00;;;;;;;9.35;5.85;;;10.10;1.00;;;;;;5031608;28;20463;-47
2023/02/02 01:43:46;;;;;;;11.20;6.60;;;10.20;1.00;;;;;;5030551;28;20112;-47
2023/02/02 01:46:14;;;;;;;9.02;6.20;;;10.10;1.00;;;;;;5027648;28;20030;-45
2023/02/02 01:48:46;;;;;;;11.80;6.13;;;10.20;1.00;;;;;;5031239;28;20026;-46
2023/02/02 01:51:17;;;;;;;12.57;6.93;;;10.20;1.00;;;;;;5033914;28;20379;-46
2023/02/02 01:53:44;;;;;;;14.55;7.03;;;10.30;1.00;;;;;;5022079;28;20013;-47
2023/02/02 01:56:16;;;;;;;10.25;6.40;;;10.10;1.00;;;;;;5035396;28;20351;-47
2023/02/02 01:58:43;;;;;;;11.45;6.30;;;10.00;1.00;;;;;;5033905;28;20026;-47
2023/02/02 02:01:08;;;;;;;10.20;6.27;;;10.10;1.00;;;;;;5034874;28;20072;-47
2023/02/02 02:03:36;;;;;;;10.27;6.40;;;10.10;1.00;;;;;;5033694;28;20033;-47
2023/02/02 02:06:09;;;;;;;14.43;7.78;;;10.10;1.00;;;;;;5033817;28;20045;-47
2023/02/02 02:08:56;;;;;;;9.05;6.00;;;10.10;1.00;;;;;;5034959;28;20498;-47
2023/02/02 02:17:37;;;;;;;12.80;6.80;;;10.10;1.00;;;;;;5023075;28;20037;-47
2023/02/02 02:26:35;;;;;;;11.73;7.07;;;10.20;1.00;;;;;;5021450;28;20032;-47
2023/02/02 02:29:17;;;;;;;14.05;7.55;;;10.20;1.00;;;;;;5033565;28;20533;-47
2023/02/02 02:32:08;;;;;;;12.33;8.13;;;10.20;1.00;;;;;;5033395;28;20103;-47
2023/02/02 02:34:39;;;;;;;13.97;7.93;;;10.20;1.00;;;;;;5020077;28;20034;-49
2023/02/02 02:37:19;;;;;;;15.07;7.93;;;10.10;1.00;;;;;;5032223;28;20150;-47
2023/02/02 02:39:53;;;;;;;12.82;7.53;;;10.10;1.00;;;;;;5020826;28;20602;-47
2023/02/02 02:42:23;;;;;;;13.55;8.07;;;10.00;1.00;;;;;;5032335;28;20536;-47
2023/02/02 02:48:11;;;;;;;12.40;7.83;;;10.00;1.00;;;;;;5022060;28;20036;-46
2023/02/02 02:51:08;;;;;;;12.17;8.30;;;10.00;1.00;;;;;;5030654;28;20430;-49
2023/02/02 02:53:36;;;;;;;15.45;8.38;;;10.10;1.00;;;;;;5031260;28;20389;-48
2023/02/02 02:56:27;;;;;;;14.02;7.65;;;10.00;1.00;;;;;;5033597;28;20022;-49
2023/02/02 03:02:20;;;;;;;13.43;7.43;;;9.90;1.00;;;;;;5010782;28;20061;-47
2023/02/02 03:05:00;;;;;;;15.88;8.27;;;10.00;1.00;;;;;;5029527;28;20034;-49
2023/02/02 03:07:34;;;;;;;13.37;8.20;;;10.00;1.00;;;;;;5034001;28;20033;-47
2023/02/02 03:10:03;;;;;;;13.23;8.07;;;10.00;1.00;;;;;;5033914;28;20440;-47
2023/02/02 03:12:28;;;;;;;12.50;7.55;;;10.10;1.00;;;;;;5033829;28;20025;-47
2023/02/02 03:14:54;;;;;;;15.45;8.25;;;10.10;1.00;;;;;;5034086;28;20120;-46
2023/02/02 03:17:20;;;;;;;13.68;7.85;;;10.10;1.00;;;;;;5033648;28;20425;-46
2023/02/02 03:19:45;;;;;;;12.52;7.82;;;10.10;1.00;;;;;;5033896;28;20029;-48
2023/02/02 03:22:11;;;;;;;13.53;7.23;;;10.00;1.00;;;;;;5033072;28;20030;-47
2023/02/02 03:24:36;;;;;;;15.23;7.57;;;10.00;1.00;;;;;;5033468;28;20029;-47
2023/02/02 03:27:02;;;;;;;15.07;8.35;;;10.10;1.00;;;;;;5033420;28;20053;-46
2023/02/02 03:29:28;;;;;;;15.30;8.45;;;10.00;1.00;;;;;;5033574;28;20091;-45
2023/02/02 03:31:54;;;;;;;10.00;7.55;;;9.90;1.00;;;;;;5033273;28;20037;-46
2023/02/02 03:34:19;;;;;;;19.77;7.73;;;9.90;1.00;;;;;;5033408;28;20053;-50
2023/02/02 03:36:45;;;;;;;16.52;8.40;;;9.90;1.00;;;;;;5032454;28;20430;-46
2023/02/02 03:39:11;;;;;;;14.35;8.50;;;9.80;1.00;;;;;;5033666;28;20025;-46
2023/02/02 03:41:36;;;;;;;15.00;8.40;;;9.90;1.00;;;;;;5032636;28;20145;-48
2023/02/02 03:44:02;;;;;;;14.13;9.30;;;9.80;1.00;;;;;;5033035;28;20036;-46
2023/02/02 03:46:27;;;;;;;13.03;8.20;;;9.90;1.00;;;;;;5033692;28;20037;-46
2023/02/02 03:49:02;;;;;;;14.98;7.97;;;9.80;1.00;;;;;;5033238;28;20108;-48
2023/02/02 03:51:28;;;;;;;13.50;7.97;;;9.70;1.00;;;;;;5033080;28;20467;-48
2023/02/02 03:53:53;;;;;;;12.50;8.40;;;9.80;1.00;;;;;;5037953;28;20029;-46
2023/02/02 03:56:19;;;;;;;14.13;8.07;;;9.90;1.00;;;;;;5038445;28;20030;-46
2023/02/02 03:58:46;;;;;;;15.82;9.35;;;9.80;1.00;;;;;;5033107;28;20078;-48
2023/02/02 04:01:13;;;;;;;14.48;8.15;;;9.90;1.00;;;;;;5032680;28;20056;-46
2023/02/02 04:03:39;;;;;;;15.98;8.70;;;9.90;1.00;;;;;;5032418;28;20489;-47
2023/02/02 04:06:05;;;;;;;13.05;8.90;;;9.90;1.00;;;;;;5032308;28;20056;-47
2023/02/02 04:08:30;;;;;;;14.93;7.97;;;9.90;1.00;;;;;;5032904;28;20052;-47
2023/02/02 04:10:57;;;;;;;13.47;8.33;;;9.70;1.00;;;;;;5033256;28;20025;-46
2023/02/02 04:13:22;;;;;;;14.40;9.40;;;9.80;1.00;;;;;;5031227;28;20025;-47
2023/02/02 04:15:59;;;;;;;15.32;8.23;;;9.80;1.00;;;;;;5032456;28;20052;-47
2023/02/02 04:18:24;;;;;;;12.23;7.80;;;9.80;1.00;;;;;;5032726;28;20037;-47
2023/02/02 04:20:55;;;;;;;15.53;8.40;;;9.80;1.00;;;;;;5032148;28;20024;-47
2023/02/02 04:23:21;;;;;;;14.70;9.43;;;9.90;1.00;;;;;;5032590;28;20033;-48
2023/02/02 04:25:50;;;;;;;19.27;8.67;;;9.80;1.00;;;;;;5032409;28;20075;-46
2023/02/02 04:28:16;;;;;;;16.25;8.65;;;9.80;1.00;;;;;;5032558;28;20032;-47
2023/02/02 04:30:42;;;;;;;11.57;7.93;;;9.70;1.00;;;;;;5032223;28;20029;-46
2023/02/02 04:33:07;;;;;;;15.33;8.37;;;9.70;1.00;;;;;;5032518;28;20032;-46
2023/02/02 04:35:33;;;;;;;13.10;8.47;;;9.60;1.00;;;;;;5031567;28;20104;-47
2023/02/02 04:37:59;;;;;;;12.45;7.88;;;9.70;1.00;;;;;;5032510;28;20435;-46
2023/02/02 04:40:25;;;;;;;16.93;8.57;;;9.80;1.00;;;;;;5032057;28;20520;-47
2023/02/02 04:42:50;;;;;;;16.23;9.38;;;9.90;1.00;;;;;;5030766;28;20049;-47
2023/02/02 04:45:16;;;;;;;14.85;8.75;;;9.90;1.00;;;;;;5035284;28;20025;-47
2023/02/02 04:47:42;;;;;;;16.90;9.45;;;9.90;1.00;;;;;;5032332;28;20445;-47
2023/02/02 04:50:08;;;;;;;14.30;8.73;;;9.90;1.00;;;;;;5031683;28;20486;-48
2023/02/02 04:52:34;;;;;;;12.07;8.03;;;9.90;1.00;;;;;;5032187;28;20443;-46
2023/02/02 04:55:00;;;;;;;15.77;9.00;;;9.90;1.00;;;;;;5031702;28;20029;-46
2023/02/02 04:57:25;;;;;;;16.10;8.80;;;10.00;1.00;;;;;;5031764;28;20033;-47
2023/02/02 04:59:51;;;;;;;14.47;9.03;;;9.90;1.00;;;;;;5032313;28;20021;-46
2023/02/02 05:02:17;;;;;;;13.30;8.60;;;10.00;1.00;;;;;;5031520;28;20050;-46
2023/02/02 05:04:42;;;;;;;20.53;10.20;;;9.90;1.00;;;;;;5031797;28;20047;-47
2023/02/02 05:07:08;;;;;;;13.73;8.23;;;9.90;1.00;;;;;;5031426;28;20041;-47
2023/02/02 05:09:34;;;;;;;14.83;8.77;;;9.90;1.00;;;;;;5031597;28;20105;-46
2023/02/02 05:11:59;;;;;;;16.30;9.43;;;9.80;1.00;;;;;;5031533;28;20030;-46
2023/02/02 05:14:25;;;;;;;15.67;9.20;;;9.80;1.00;;;;;;5032426;28;20025;-47
2023/02/02 05:16:51;;;;;;;13.67;9.07;;;9.80;1.00;;;;;;5031495;28;20041;-47
2023/02/02 05:19:17;;;;;;;17.10;8.77;;;9.80;1.00;;;;;;5031940;28;20463;-46
2023/02/02 05:21:47;;;;;;;14.77;8.80;;;9.80;1.00;;;;;;5031782;28;20067;-47
2023/02/02 05:24:13;;;;;;;13.87;9.00;;;9.80;1.00;;;;;;5017849;28;20471;-47
2023/02/02 05:26:44;;;;;;;15.43;8.87;;;9.80;1.00;;;;;;5030948;28;20037;-46
2023/02/02 05:29:10;;;;;;;14.87;8.30;;;9.80;1.00;;;;;;5030630;28;20033;-46
2023/02/02 05:31:36;;;;;;;13.13;8.38;;;9.80;1.00;;;;;;5031939;28;20025;-47
2023/02/02 05:34:01;;;;;;;12.80;8.82;;;9.80;1.00;;;;;;5029752;28;20364;-46
2023/02/02 05:36:27;;;;;;;15.80;7.97;;;9.80;1.00;;;;;;5030284;28;20064;-47
2023/02/02 05:38:53;;;;;;;13.23;8.27;;;9.70;1.00;;;;;;5031070;28;20064;-46
2023/02/02 05:41:18;;;;;;;12.77;7.67;;;9.70;1.00;;;;;;5031309;28;20038;-46
2023/02/02 05:43:44;;;;;;;13.60;8.73;;;9.70;1.00;;;;;;5031543;28;20032;-46
2023/02/02 05:46:10;;;;;;;13.13;7.27;;;9.80;1.00;;;;;;5038269;28;20025;-47
2023/02/02 05:48:36;;;;;;;13.83;7.50;;;9.80;1.00;;;;;;5032162;28;20478;-48
2023/02/02 05:51:10;;;;;;;13.40;7.60;;;9.70;1.00;;;;;;5031187;28;20029;-47
2023/02/02 05:53:36;;;;;;;10.32;6.72;;;9.70;1.00;;;;;;5018131;28;20543;-46
2023/02/02 05:56:02;;;;;;;11.50;6.77;;;9.60;1.00;;;;;;5031061;28;20061;-47
2023/02/02 05:58:27;;;;;;;13.10;7.13;;;9.70;1.00;;;;;;5031269;28;20045;-46
2023/02/02 06:00:53;;;;;;;14.13;8.10;;;9.60;1.00;;;;;;5030489;28;20018;-47
2023/02/02 06:03:19;;;;;;;15.30;9.13;;;9.60;1.00;;;;;;5030876;28;20037;-45
2023/02/02 06:05:45;;;;;;;16.67;9.03;;;9.60;1.00;;;;;;5031250;28;20107;-47
2023/02/02 06:08:10;;;;;;;24.37;9.93;;;9.60;1.00;;;;;;5031274;28;20025;-46
2023/02/02 06:10:40;;;;;;;17.83;10.20;;;9.50;1.00;;;;;;5030887;28;20079;-46
2023/02/02 06:13:06;;;;;;;16.83;10.07;;;9.60;1.00;;;;;;5029987;28;20430;-46
2023/02/02 06:15:33;;;;;;;16.60;10.07;;;9.50;1.00;;;;;;5030340;28;20033;-46
2023/02/02 06:17:59;;;;;;;16.57;9.80;;;9.50;1.00;;;;;;5031233;28;20036;-47
2023/02/02 06:20:24;;;;;;;16.77;9.90;;;9.40;1.00;;;;;;5030546;28;20485;-46
2023/02/02 06:22:50;;;;;;;16.23;9.80;;;9.30;1.00;;;;;;5030771;28;20372;-50
2023/02/02 06:25:16;;;;;;;18.10;9.93;;;9.30;1.00;;;;;;5030768;28;20026;-46
2023/02/02 06:27:44;;;;;;;15.50;9.90;;;9.40;1.00;;;;;;5030789;28;20026;-47
2023/02/02 06:30:12;;;;;;;13.40;9.00;;;9.40;1.00;;;;;;5031377;28;20025;-48
2023/02/02 06:32:38;;;;;;;14.00;9.10;;;9.30;1.00;;;;;;5030938;28;20025;-46
2023/02/02 06:35:04;;;;;;;14.50;8.67;;;9.30;1.00;;;;;;5030537;28;20108;-50
2023/02/02 06:37:30;;;;;;;10.67;8.20;;;9.30;1.00;;;;;;5032404;28;20087;-46
2023/02/02 06:39:55;;;;;;;14.27;8.23;;;9.20;1.00;;;;;;5034215;28;20089;-50
2023/02/02 06:42:21;;;;;;;13.53;8.60;;;9.30;1.00;;;;;;5029351;28;20050;-49
2023/02/02 06:44:47;;;;;;;15.13;8.43;;;9.30;1.00;;;;;;5034093;28;20028;-48
2023/02/02 06:47:12;;;;;;;14.10;7.97;;;9.30;1.00;;;;;;5034203;28;20034;-47
2023/02/02 06:49:38;;;;;;;13.50;8.00;;;9.20;1.00;;;;;;5034581;28;20021;-47
2023/02/02 06:52:04;;;;;;;11.70;7.90;;;9.30;1.00;;;;;;5034243;28;20030;-47
2023/02/02 06:54:29;;;;;;;16.77;9.57;;;9.30;1.00;;;;;;5032505;28;20032;-46
2023/02/02 06:56:55;;;;;;;13.63;7.97;;;9.20;1.00;;;;;;5034383;28;20045;-46
2023/02/02 06:59:20;;;;;;;12.90;7.80;;;9.10;1.00;;;;;;5034260;28;20025;-47
2023/02/02 07:01:48;;;;;;;13.33;8.13;;;9.10;1.00;;;;;;5033655;28;20053;-46
2023/02/02 07:04:16;;;;;;;15.00;7.60;;;9.20;1.00;;;;;;5033836;28;20731;-47
2023/02/02 07:06:42;;;;;;;13.40;7.83;;;9.20;1.00;;;;;;5034249;28;20025;-46
2023/02/02 07:09:08;;;;;;;11.63;7.33;;;9.20;1.00;;;;;;5033936;28;20044;-47
2023/02/02 07:11:36;;;;;;;14.17;8.17;;;9.10;1.00;;;;;;5032991;28;20033;-47
2023/02/02 07:14:02;;;;;;;15.07;7.97;;;9.20;1.00;;;;;;5033980;28;20112;-47
2023/02/02 07:16:29;;;;;;;11.80;7.43;;;9.20;1.00;;;;;;5027422;28;20139;-49
2023/02/02 07:18:55;;;;;;;14.13;7.67;;;9.20;1.00;;;;;;5034260;28;20422;-47
2023/02/02 07:21:23;;;;;;;13.63;8.07;;;9.20;1.00;;;;;;5033578;28;20459;-49
2023/02/02 07:23:49;;;;;;;18.73;9.20;;;9.10;1.00;;;;;;5034203;28;20033;-50
2023/02/02 07:26:17;;;;;;;12.70;8.03;;;9.20;1.00;;;;;;5033667;28;20345;-47
2023/02/02 07:28:43;;;;;;;14.70;8.60;;;9.20;1.00;;;;;;5038980;28;20029;-49
2023/02/02 07:31:16;;;;;;;19.90;10.80;;;9.30;1.00;;;;;;5042047;28;20037;-47
2023/02/02 07:33:43;;;;;;;16.30;10.50;;;9.30;1.00;;;;;;5033533;28;20112;-47
2023/02/02 07:36:13;;;;;;;17.97;10.40;;;9.30;1.00;;;;;;5033648;28;20471;-48
2023/02/02 07:38:38;;;;;;;22.90;13.67;;;9.30;1.00;;;;;;5032471;28;20038;-47
2023/02/02 07:41:04;;;;;;;19.10;11.23;;;9.30;1.00;;;;;;5033690;28;20028;-48
2023/02/02 07:43:30;;;;;;;17.23;11.63;;;9.20;1.00;;;;;;5031071;28;20034;-47
2023/02/02 07:46:01;;;;;;;21.53;11.87;;;9.20;1.00;;;;;;5032739;28;20429;-47
2023/02/02 07:48:28;;;;;;;19.30;11.93;;;9.20;1.00;;;;;;5032736;28;20057;-47
2023/02/02 07:51:14;;;;;;;18.33;11.17;;;9.20;1.00;;;;;;5030857;28;20028;-48
2023/02/02 07:53:45;;;;;;;21.57;12.30;;;9.10;1.00;;;;;;5024899;28;20045;-47
2023/02/02 07:56:22;;;;;;;24.87;11.90;;;9.10;1.00;;;;;;5033361;28;20068;-46
2023/02/02 07:58:51;;;;;;;21.30;11.77;;;9.10;1.00;;;;;;5033361;28;20018;-46
2023/02/02 08:01:16;;;;;;;17.53;10.97;;;9.10;1.00;;;;;;5032758;28;20404;-47
2023/02/02 08:03:43;;;;;;;21.13;12.17;;;9.20;1.00;;;;;;5032973;28;20059;-46
2023/02/02 08:06:17;;;;;;;16.73;11.90;;;9.10;1.00;;;;;;5031737;28;20033;-47
2023/02/02 08:08:43;;;;;;;;;;;9.00;1.00;;;;;;5033450;28;20100;-47
2023/02/02 08:11:11;;;;;;;20.03;12.70;;;9.00;1.00;;;;;;5032208;28;19920;-48
2023/02/02 08:13:37;;;;;;;24.30;13.43;;;8.70;1.00;;;;;;5031508;28;20072;-47
2023/02/02 08:16:03;;;;;;;18.40;12.20;;;8.70;1.00;;;;;;5032686;28;20086;-47
2023/02/02 08:18:29;;;;;;;18.53;12.47;;;8.80;1.00;;;;;;5032080;28;20025;-48
2023/02/02 08:20:58;;;;;;;18.93;12.30;;;8.90;1.00;;;;;;5032338;28;20033;-47
2023/02/02 08:23:24;;;;;;;19.97;11.83;;;8.90;1.00;;;;;;5032048;28;20143;-48
2023/02/02 08:25:50;;;;;;;20.87;11.97;;;8.80;1.00;;;;;;5032963;28;20499;-50
2023/02/02 08:28:16;;;;;;;18.00;11.40;;;8.80;1.00;;;;;;5032793;28;20042;-48
2023/02/02 08:30:42;;;;;;;18.90;10.80;;;8.80;1.00;;;;;;5032749;28;20030;-50
2023/02/02 08:33:07;;;;;;;18.33;10.47;;;8.80;1.00;;;;;;5032414;28;20029;-48
2023/02/02 08:35:33;;;;;;;17.97;10.17;;;8.80;1.00;;;;;;5031539;28;20113;-47
2023/02/02 08:38:01;;;;;;;16.33;10.27;;;8.90;1.00;;;;;;5032819;28;20025;-48
2023/02/02 08:40:27;;;;;;;17.93;10.37;;;8.80;1.00;;;;;;5030718;28;20034;-51
2023/02/02 08:42:53;;;;;;;18.93;10.53;;;8.90;1.00;;;;;;5030923;28;20057;-47
2023/02/02 08:45:20;;;;;;;17.10;9.80;;;9.10;1.00;;;;;;5031888;28;20029;-46
2023/02/02 08:47:45;;;;;;;16.77;9.43;;;9.10;1.00;;;;;;5020953;28;20061;-47
2023/02/02 08:50:11;;;;;;;14.77;9.50;;;9.10;1.00;;;;;;5031841;28;20073;-51
2023/02/02 08:52:36;;;;;;;13.47;9.10;;;9.10;1.00;;;;;;5032253;28;20037;-46
2023/02/02 08:55:03;;;;;;;16.57;9.17;;;9.20;1.00;;;;;;5031827;28;20124;-48
2023/02/02 08:57:31;;;;;;;17.50;9.87;;;9.30;1.00;;;;;;5028766;28;20156;-47
2023/02/02 08:59:57;;;;;;;12.93;8.70;;;9.30;1.00;;;;;;5030902;28;20029;-48
2023/02/02 09:02:22;;;;;;;14.77;9.73;;;9.30;1.00;;;;;;5031545;28;20518;-49
2023/02/02 09:04:48;;;;;;;19.83;8.97;;;9.40;1.00;;;;;;5031787;28;20033;-47
2023/02/02 09:07:14;;;;;;;14.00;8.27;;;9.40;1.00;;;;;;5029906;28;20041;-47
2023/02/02 09:09:39;;;;;;;13.83;7.90;;;9.50;1.00;;;;;;5031952;28;20025;-49
2023/02/02 09:12:05;;;;;;;16.93;8.40;;;9.60;1.00;;;;;;5032018;28;20068;-47
2023/02/02 09:14:30;;;;;;;14.40;7.37;;;9.70;1.00;;;;;;5032189;28;20025;-48
2023/02/02 09:16:56;;;;;;;15.20;7.73;;;9.80;1.00;;;;;;5031730;28;20030;-47
2023/02/02 09:19:22;;;;;;;11.07;7.33;;;9.90;1.00;;;;;;5021932;28;20426;-48
2023/02/02 09:21:50;;;;;;;10.93;7.73;;;9.90;1.00;;;;;;5031589;28;20508;-47
2023/02/02 09:24:16;;;;;;;14.87;6.97;;;9.90;1.00;;;;;;5032476;28;20040;-47
2023/02/02 09:26:43;;;;;;;12.70;7.50;;;9.90;1.00;;;;;;5032241;28;20022;-47
2023/02/02 09:29:12;;;;;;;9.80;6.45;;;10.00;1.00;;;;;;5031955;28;20103;-48
2023/02/02 09:31:38;;;;;;;13.93;6.63;;;10.10;1.00;;;;;;5031606;28;20104;-47
2023/02/02 09:34:09;;;;;;;10.63;7.15;;;10.10;1.00;;;;;;5031050;28;20041;-45
2023/02/02 09:36:37;;;;;;;12.30;7.60;;;10.20;1.00;;;;;;5031144;28;20060;-47
2023/02/02 09:39:04;;;;;;;13.95;8.13;;;10.20;1.00;;;;;;5031364;28;20032;-48
2023/02/02 09:41:42;;;;;;;14.93;7.80;;;10.20;1.00;;;;;;5031516;28;20033;-50
2023/02/02 09:44:36;;;;;;;15.07;8.70;;;10.20;1.00;;;;;;5031094;28;20057;-52
2023/02/02 09:47:20;;;;;;;12.00;8.07;;;10.10;1.00;;;;;;5029670;28;20029;-52
2023/02/02 09:49:52;;;;;;;14.27;7.20;;;10.20;1.00;;;;;;5031214;28;20032;-53
2023/02/02 09:52:27;;;;;;;12.17;7.50;;;10.10;1.00;;;;;;5030915;28;20976;-51
2023/02/02 09:55:23;;;;;;;12.40;7.28;;;10.10;1.00;;;;;;5031963;28;20096;-54
2023/02/02 09:57:54;;;;;;;12.40;6.40;;;10.20;1.00;;;;;;5030867;28;20087;-51
2023/02/02 10:00:31;;;;;;;12.70;6.97;;;10.20;1.00;;;;;;5030671;28;20064;-51
2023/02/02 10:03:03;;;;;;;11.75;6.97;;;10.10;1.00;;;;;;5013116;28;20135;-50
2023/02/02 10:05:54;;;;;;;11.38;6.60;;;10.20;1.00;;;;;;5024787;28;20033;-52
2023/02/02 10:08:35;;;;;;;13.52;6.20;;;10.30;1.00;;;;;;5020332;28;20368;-51
2023/02/02 10:11:17;;;;;;;14.35;6.43;;;10.30;1.00;;;;;;5031507;28;20029;-50
2023/02/02 10:13:44;;;;;;;9.55;5.55;;;10.30;1.00;;;;;;5034769;28;20030;-50
2023/02/02 10:16:21;;;;;;;9.05;5.32;;;10.40;1.00;;;;;;5034734;28;20383;-49
2023/02/02 10:18:58;;;;;;;10.50;4.80;;;10.50;1.00;;;;;;5035200;28;20075;-51
2023/02/02 10:21:56;;;;;;;8.20;5.00;;;10.50;1.00;;;;;;5034631;28;20025;-53
2023/02/02 10:24:25;;;;;;;7.90;4.70;;;10.60;1.00;;;;;;5029990;28;20170;-51
2023/02/02 10:26:52;;;;;;;7.65;4.55;;;10.70;1.00;;;;;;5033432;28;20051;-50
2023/02/02 10:29:20;;;;;;;7.97;4.55;;;10.70;1.00;;;;;;5034463;28;20041;-52
2023/02/02 10:31:58;;;;;;;8.20;4.63;;;10.80;1.00;;;;;;5034654;28;20034;-50
2023/02/02 10:34:34;;;;;;;8.65;4.28;;;10.80;1.00;;;;;;5034686;28;20437;-52
2023/02/02 10:37:12;;;;;;;5.18;3.83;;;10.90;1.00;;;;;;5021882;28;20039;-51
2023/02/02 10:39:47;;;;;;;6.65;3.83;;;11.00;1.00;;;;;;5034646;28;20216;-51
2023/02/02 10:42:39;;;;;;;6.28;3.25;;;10.90;1.00;;;;;;5033652;28;20072;-47
2023/02/02 10:45:18;;;;;;;6.35;3.65;;;11.10;1.00;;;;;;5034535;28;20089;-48
2023/02/02 10:47:44;;;;;;;4.40;3.25;;;11.10;1.00;;;;;;5032676;28;20044;-50
2023/02/02 10:50:15;;;;;;;5.60;2.70;;;11.10;1.00;;;;;;5033926;28;20034;-48
2023/02/02 10:53:05;;;;;;;6.45;2.95;;;11.20;1.00;;;;;;5020604;28;20025;-51
2023/02/02 10:55:55;;;;;;;3.45;2.38;;;11.30;1.00;;;;;;5033403;28;20483;-49
2023/02/02 10:58:53;;;;;;;5.82;3.53;;;11.40;1.00;;;;;;5034157;28;20095;-46
2023/02/02 11:01:21;;;;;;;7.03;2.10;;;11.50;1.00;;;;;;5019783;28;20406;-47
2023/02/02 11:03:48;;;;;;;3.53;2.28;;;11.50;1.00;;;;;;5033639;28;20509;-51
2023/02/02 11:09:00;;;;;;;3.25;2.58;;;11.60;1.00;;;;;;5028158;28;20067;-47
2023/02/02 11:11:33;;;;;;;5.95;2.40;;;11.70;1.00;;;;;;5033853;28;20024;-47
2023/02/02 11:14:08;;;;;;;8.20;2.80;;;11.80;1.00;;;;;;5027338;28;20091;-46
2023/02/02 11:16:35;;;;;;;;;;;11.90;1.00;;;;;;5033279;28;20029;-47
2023/02/02 11:19:05;;;;;;;3.60;2.25;;;11.90;1.00;;;;;;5033637;28;19909;-47
2023/02/02 11:21:33;;;;;;;2.20;2.00;;;12.00;1.00;;;;;;5032228;28;20033;-47
2023/02/02 11:24:04;;;;;;;4.82;2.78;;;12.10;1.00;;;;;;5033051;28;20112;-46
2023/02/02 11:26:50;;;;;;;4.28;2.00;;;12.10;1.00;;;;;;5033171;28;20026;-47
2023/02/02 11:29:48;;;;;;;4.10;2.28;;;12.20;1.00;;;;;;5033299;28;20040;-47
2023/02/02 11:32:27;;;;;;;4.53;2.50;;;12.30;1.00;;;;;;5027404;28;20413;-47
2023/02/02 11:35:19;;;;;;;4.13;2.25;;;12.30;1.00;;;;;;5033652;28;20364;-48
2023/02/02 11:38:07;;;;;;;4.05;2.50;;;12.40;1.00;;;;;;5026201;28;20025;-47
2023/02/02 11:40:52;;;;;;;4.13;2.10;;;12.50;1.00;;;;;;5032932;28;20041;-45
2023/02/02 11:43:32;;;;;;;3.50;1.80;;;12.50;1.00;;;;;;5033162;28;20069;-47
2023/02/02 11:46:05;;;;;;;2.50;1.65;;;12.60;1.00;;;;;;5032752;28;20026;-45
2023/02/02 11:48:35;;;;;;;3.42;1.95;;;12.60;1.00;;;;;;5031541;28;20531;-47
2023/02/02 11:51:02;;;;;;;6.68;3.05;;;12.70;1.00;;;;;;5019559;28;20320;-46
2023/02/02 11:53:48;;;;;;;4.55;2.58;;;12.80;1.00;;;;;;5031459;28;20427;-46
2023/02/02 11:56:23;;;;;;;2.97;2.22;;;12.80;1.00;;;;;;5020252;28;20029;-47
2023/02/02 11:58:51;;;;;;;3.85;2.10;;;12.80;1.00;;;;;;5032570;28;20052;-47
2023/02/02 12:01:25;;;;;;;5.80;2.53;;;12.90;1.00;;;;;;5031864;28;20045;-46
2023/02/02 12:03:56;;;;;;;4.18;2.38;;;12.90;1.00;;;;;;5032705;28;20037;-47
2023/02/02 12:06:24;;;;;;;5.38;3.10;;;13.00;1.00;;;;;;5034620;28;20030;-46
2023/02/02 12:08:55;;;;;;;4.40;2.92;;;13.00;1.00;;;;;;5042948;28;20057;-46
2023/02/02 12:11:28;;;;;;;5.30;2.85;;;13.10;1.00;;;;;;5035042;28;20054;-46
2023/02/02 12:14:10;;;;;;;4.78;3.47;;;13.00;1.00;;;;;;5026558;28;20028;-47
2023/02/02 12:16:48;;;;;;;7.13;3.97;;;13.00;1.00;;;;;;5030487;28;20026;-46
2023/02/02 12:19:28;;;;;;;7.68;4.75;;;13.10;1.00;;;;;;5032554;28;20018;-50
2023/02/02 12:22:22;;;;;;;7.07;4.55;;;13.10;1.00;;;;;;5032079;28;20037;-47
2023/02/02 12:25:19;;;;;;;5.40;4.20;;;13.00;1.00;;;;;;5032057;28;20059;-47
2023/02/02 12:27:56;;;;;;;7.43;4.35;;;13.20;1.00;;;;;;5032133;28;20447;-47
2023/02/02 12:30:29;;;;;;;5.95;3.72;;;13.20;1.00;;;;;;5032077;28;20490;-50
2023/02/02 12:33:25;;;;;;;6.70;4.60;;;13.30;1.00;;;;;;5032379;28;20029;-48
2023/02/02 12:36:12;;;;;;;5.63;4.00;;;13.30;1.00;;;;;;5032670;28;20490;-54
2023/02/02 12:38:56;;;;;;;7.03;4.50;;;13.40;1.00;;;;;;5036321;28;20081;-53
2023/02/02 12:41:43;;;;;;;5.90;3.63;;;13.30;1.00;;;;;;5031649;28;20208;-55
2023/02/02 12:44:17;;;;;;;4.80;3.40;;;13.40;1.00;;;;;;5025250;28;20430;-55
2023/02/02 12:46:58;;;;;;;7.25;3.72;;;13.50;1.00;;;;;;5032598;28;20119;-56
2023/02/02 12:49:53;;;;;;;4.60;3.45;;;13.40;1.00;;;;;;5030797;28;20057;-54
2023/02/02 12:52:19;;;;;;;;;;;13.40;1.00;;;;;;5029774;28;20398;-56
2023/02/02 12:55:07;;;;;;;7.20;4.40;;;13.50;1.00;;;;;;5043281;28;19909;-54
2023/02/02 12:58:17;;;;;;;6.65;4.57;;;13.50;1.00;;;;;;5032571;28;20080;-55
2023/02/02 13:01:09;;;;;;;8.20;4.43;;;13.70;1.00;;;;;;5023976;28;20041;-57
2023/02/02 13:03:43;;;;;;;4.40;3.65;;;13.70;1.00;;;;;;5042513;28;20331;-55
2023/02/02 13:06:35;;;;;;;5.38;4.10;;;13.80;1.00;;;;;;5030433;28;20049;-56
2023/02/02 13:09:19;;;;;;;5.35;3.42;;;13.70;1.00;;;;;;5028008;28;20025;-54
2023/02/02 13:12:08;;;;;;;5.80;3.88;;;13.70;1.00;;;;;;5031020;28;20474;-56
2023/02/02 13:14:45;;;;;;;5.20;3.58;;;13.80;1.00;;;;;;5030979;28;20029;-57
2023/02/02 13:17:18;;;;;;;3.65;3.25;;;13.80;1.00;;;;;;5038949;28;20068;-55
2023/02/02 13:19:51;;;;;;;4.10;3.35;;;13.80;1.00;;;;;;5044008;28;20029;-54
2023/02/02 13:22:22;;;;;;;6.15;4.05;;;13.90;1.00;;;;;;5037130;28;20028;-56
2023/02/02 13:24:52;;;;;;;6.75;4.10;;;13.90;1.00;;;;;;5041938;28;20395;-57
2023/02/02 13:27:20;;;;;;;3.85;2.67;;;13.90;1.00;;;;;;5033204;28;20034;-56
2023/02/02 13:29:57;;;;;;;3.17;2.42;;;14.00;1.00;;;;;;5031186;28;20018;-56
2023/02/02 13:32:31;;;;;;;3.50;2.42;;;14.00;1.00;;;;;;5030993;28;20030;-56
2023/02/02 13:35:16;;;;;;;6.18;3.05;;;14.00;1.00;;;;;;5029140;28;20029;-57